To NAV CANADA Home Page Login to a new session Search on AWWS site Disclaimer Vers la page française équivalente Tips FAQ What's new on the site To the Forecasts and Observations / NOTAM section To "File a Flight Plan" website Publications and other links Update of the User's profile FIC Telephone Numbers My Weather Data Folder Route Weather Data Regional Weather Data Local Weather Data To the Forecasts and Observations / NOTAM section
Request Generated 03/08/2021 at 00:58:45 UTC . Weather information available at that time is displayed.

METAR/TAF

If you find any discrepancies between the coded METAR/TAF and the plain language METAR/TAF please use the coded METAR/TAF. LWIS bulletins are not decoded in plain language.

TORONTO/LESTER B. PEARSON INTL/ON    

METAR CYYZ 080000Z 36008KT 15SM FEW190 M04/M14 A3042 RMK AC1 AC TR SLP315=
METAR
LOCATION
CYYZ - TORONTO/LESTER B. PEARSON INTL/ON
DATE - TIME
08 MARCH 2021 - 0000 UTC
WIND
360 TRUE @ 8  KNOTS
VISIBILITY
15 STAT.  MILES
RUNWAY VISUAL RANGE
WEATHER
CLOUDINESS
FEW CLOUDS (1/8 - 2/8) 19000  FT
TEMP / DEWPOINT
-4 C / -14 C
ALTIMETER
30.42 IN HG
RECENT WEATHER
WIND SHEAR

METAR CYYZ 072300Z 32009KT 15SM FEW040 FEW045 FEW250 M02/M17 A3041 RMK CF1SC1CI CF TR SC TR SLP312=
METAR
LOCATION
CYYZ - TORONTO/LESTER B. PEARSON INTL/ON
DATE - TIME
07 MARCH 2021 - 2300 UTC
WIND
320 TRUE @ 9  KNOTS
VISIBILITY
15 STAT.  MILES
RUNWAY VISUAL RANGE
WEATHER
CLOUDINESS
FEW CLOUDS (1/8 - 2/8) 4000  FT
FEW CLOUDS (1/8 - 2/8) 4500  FT
FEW CLOUDS (1/8 - 2/8) 25000  FT
TEMP / DEWPOINT
-2 C / -17 C
ALTIMETER
30.41 IN HG
RECENT WEATHER
WIND SHEAR

METAR CYYZ 072200Z 29006KT 15SM FEW040 FEW250 M01/M17 A3040 RMK CF1CI1 CF TR CI R SLP307=
METAR
LOCATION
CYYZ - TORONTO/LESTER B. PEARSON INTL/ON
DATE - TIME
07 MARCH 2021 - 2200 UTC
WIND
290 TRUE @ 6  KNOTS
VISIBILITY
15 STAT.  MILES
RUNWAY VISUAL RANGE
WEATHER
CLOUDINESS
FEW CLOUDS (1/8 - 2/8) 4000  FT
FEW CLOUDS (1/8 - 2/8) 25000  FT
TEMP / DEWPOINT
-1 C / -17 C
ALTIMETER
30.40 IN HG
RECENT WEATHER
WIND SHEAR

TAF CYYZ 072338Z 0800/0906 33005KT P6SM FEW040 FM081100 24005KT P6SM BKN040 FM081500 17012KT P6SM BKN080 FM081700 18010G20KT P6SM BKN120 FM082300 22006KT P6SM SKC BECMG 0900/0902 27008KT BECMG 0904/0906 31010KT RMK NXT FCST BY 080300Z=
TAF
LOCATION

CYYZ - TORONTO/LESTER B. PEARSON INTL/ON
VALIDITY [UTC]
07 MAR - 2338 to
09 MAR - 0600
 
TIMES
[UTC]
WIND
[DEGREES TRUE]
VISIBILITY
[STAT. MILES]
WEATHER
CLOUDINESS
[FEET AGL]
 
08 MAR - 0000 to
08 MAR - 1100
330 @ 5 KNOTS
6+
NIL
4000 FEW
 
08 MAR - 1100 to
08 MAR - 1500
240 @ 5 KNOTS
6+
NIL
4000 BROKEN
 
08 MAR - 1500 to
08 MAR - 1700
170 @ 12 KNOTS
6+
NIL
8000 BROKEN
 
08 MAR - 1700 to
08 MAR - 2300
180 @ 10 KNOTS
GUSTS 20 KNOTS
6+
NIL
12000 BROKEN
 
08 MAR - 2300 to
09 MAR - 0600
220 @ 6 KNOTS
6+
NIL
CLEAR SKY
BECOMING
09 MAR - 0000 to
09 MAR - 0200
270 @ 8 KNOTS
 
 
 
BECOMING
09 MAR - 0400 to
09 MAR - 0600
310 @ 10 KNOTS
 
 
 
REMARKS
THE NEXT FORECAST WILL BE ISSUED BY 0300 UTC ON DAY 08


Your time UTC time
Weather data provided by Environment Canada and NAV CANADA